createdAt,value
2022-09-27T00:00:24.638Z,9.26
2022-09-27T00:02:52.482Z,9.24
2022-09-27T00:05:20.550Z,9.28
2022-09-27T00:07:48.361Z,9.27
2022-09-27T00:10:16.214Z,9.27
2022-09-27T00:12:45.462Z,9.23
2022-09-27T00:15:13.336Z,9.24
2022-09-27T00:17:41.737Z,9.23
2022-09-27T00:20:10.036Z,9.19
2022-09-27T00:22:38.252Z,9.22
2022-09-27T00:25:07.374Z,9.18
2022-09-27T00:27:35.211Z,9.15
2022-09-27T00:30:04.729Z,9.11
2022-09-27T00:32:32.757Z,9.08
2022-09-27T00:35:00.612Z,9.09
2022-09-27T00:37:28.812Z,9.03
2022-09-27T00:39:56.665Z,9.05
2022-09-27T00:42:24.666Z,9.03
2022-09-27T00:45:05.252Z,8.96
2022-09-27T00:47:39.916Z,8.96
2022-09-27T00:50:11.808Z,9.00
2022-09-27T00:52:42.992Z,9.02
2022-09-27T00:55:12.750Z,9.04
2022-09-27T00:57:41.904Z,9.01
2022-09-27T01:00:12.531Z,8.96
2022-09-27T01:02:42.249Z,9.03
2022-09-27T01:05:10.952Z,9.03
2022-09-27T01:07:38.979Z,9.03
2022-09-27T01:10:07.272Z,8.99
2022-09-27T01:12:40.324Z,9.06
2022-09-27T01:15:16.577Z,9.02
2022-09-27T01:17:50.631Z,9.02
2022-09-27T01:20:45.239Z,9.02
2022-09-27T01:23:32.049Z,9.01
2022-09-27T01:26:10.613Z,9.03
2022-09-27T01:28:52.494Z,9.08
2022-09-27T01:31:25.066Z,9.01
2022-09-27T01:34:02.193Z,9.04
2022-09-27T01:36:38.690Z,9.04
2022-09-27T01:39:15.958Z,9.00
2022-09-27T01:41:47.151Z,9.03
2022-09-27T01:44:22.154Z,9.00
2022-09-27T01:46:54.025Z,8.99
2022-09-27T01:49:25.997Z,8.98
2022-09-27T01:51:56.890Z,8.96
2022-09-27T01:54:26.369Z,8.97
2022-09-27T01:56:56.102Z,8.96
2022-09-27T01:59:29.468Z,8.94
2022-09-27T02:02:01.278Z,8.94
2022-09-27T02:04:32.810Z,8.91
2022-09-27T02:07:03.269Z,8.90
2022-09-27T02:09:34.043Z,8.83
2022-09-27T02:12:04.659Z,8.84
2022-09-27T02:14:35.110Z,8.88
2022-09-27T02:17:10.152Z,8.86
2022-09-27T02:19:42.148Z,8.93
2022-09-27T02:22:15.982Z,8.87
2022-09-27T02:24:47.517Z,8.88
2022-09-27T02:27:19.086Z,8.90
2022-09-27T02:29:51.430Z,8.88
2022-09-27T02:32:20.753Z,8.92
2022-09-27T02:34:49.833Z,8.85
2022-09-27T02:37:17.685Z,8.84
2022-09-27T02:39:45.958Z,8.80
2022-09-27T02:42:13.829Z,8.77
2022-09-27T02:44:42.458Z,8.83
2022-09-27T02:47:27.920Z,8.76
2022-09-27T02:50:03.407Z,8.77
2022-09-27T02:52:38.189Z,8.72
2022-09-27T02:55:12.082Z,8.67
2022-09-27T02:57:45.991Z,8.66
2022-09-27T03:00:18.018Z,8.64
2022-09-27T03:02:51.386Z,8.54
2022-09-27T03:05:23.060Z,8.48
2022-09-27T03:07:51.042Z,8.46
2022-09-27T03:10:19.489Z,8.35
2022-09-27T03:12:47.300Z,8.37
2022-09-27T03:15:15.115Z,8.47
2022-09-27T03:17:42.988Z,8.51
2022-09-27T03:20:10.944Z,8.46
2022-09-27T03:22:40.706Z,8.50
2022-09-27T03:25:09.191Z,8.49
2022-09-27T03:27:37.126Z,8.48
2022-09-27T03:30:06.273Z,8.40
2022-09-27T03:32:34.282Z,8.38
2022-09-27T03:35:02.121Z,8.25
2022-09-27T03:37:29.892Z,8.08
2022-09-27T03:39:59.055Z,8.01
2022-09-27T03:42:26.835Z,7.91
2022-09-27T03:44:54.883Z,7.82
2022-09-27T03:47:22.949Z,7.74
2022-09-27T03:49:50.865Z,7.73
2022-09-27T03:52:18.904Z,7.84
2022-09-27T03:54:46.735Z,7.96
2022-09-27T03:57:16.084Z,8.12
2022-09-27T03:59:43.980Z,8.21
2022-09-27T04:02:11.803Z,8.35
2022-09-27T04:04:39.621Z,8.29
2022-09-27T04:07:08.424Z,8.17
2022-09-27T04:09:41.122Z,8.04
2022-09-27T04:12:12.210Z,8.08
2022-09-27T04:14:41.371Z,8.03
2022-09-27T04:17:09.215Z,7.97
2022-09-27T04:19:37.746Z,8.06
2022-09-27T04:22:05.541Z,8.21
2022-09-27T04:24:33.904Z,8.36
2022-09-27T04:27:01.693Z,8.35
2022-09-27T04:29:29.959Z,8.39
2022-09-27T04:31:59.573Z,8.41
2022-09-27T04:34:45.559Z,8.44
2022-09-27T04:37:14.062Z,8.46
2022-09-27T04:39:41.872Z,8.46
2022-09-27T04:42:09.696Z,8.37
2022-09-27T04:44:37.523Z,8.29
2022-09-27T04:49:35.653Z,8.21
2022-09-27T04:52:03.470Z,8.23
2022-09-27T04:54:31.325Z,8.24
2022-09-27T04:56:59.247Z,8.23
2022-09-27T04:59:27.581Z,8.27
2022-09-27T05:01:55.572Z,8.33
2022-09-27T05:04:24.782Z,8.38
2022-09-27T05:06:56.907Z,8.39
2022-09-27T05:09:25.253Z,8.32
2022-09-27T05:11:53.106Z,8.28
2022-09-27T05:14:21.173Z,8.31
2022-09-27T05:16:49.031Z,8.24
2022-09-27T05:19:17.094Z,8.24
2022-09-27T05:21:46.542Z,8.16
2022-09-27T05:24:14.507Z,8.08
2022-09-27T05:26:42.775Z,8.05
2022-09-27T05:29:10.841Z,8.08
2022-09-27T05:31:38.672Z,8.13
2022-09-27T05:34:11.882Z,8.23
2022-09-27T05:36:39.954Z,8.18
2022-09-27T05:39:09.338Z,8.22
2022-09-27T05:41:37.275Z,8.17
2022-09-27T05:44:05.951Z,8.14
2022-09-27T05:46:34.169Z,8.07
2022-09-27T05:49:02.178Z,8.13
2022-09-27T05:51:30.132Z,8.17
2022-09-27T05:53:58.193Z,8.28
2022-09-27T05:56:27.418Z,8.26
2022-09-27T05:58:55.240Z,8.24
2022-09-27T06:01:23.257Z,8.29
2022-09-27T06:03:53.526Z,8.32
2022-09-27T06:06:23.047Z,8.33
2022-09-27T06:08:50.893Z,8.31
2022-09-27T06:11:18.753Z,8.38
2022-09-27T06:13:48.049Z,8.34
2022-09-27T06:16:17.170Z,8.34
2022-09-27T06:18:45.026Z,8.35
2022-09-27T06:21:13.124Z,8.41
2022-09-27T06:23:40.923Z,8.44
2022-09-27T06:26:08.964Z,8.52
2022-09-27T06:28:36.767Z,8.68
2022-09-27T06:31:08.560Z,8.65
2022-09-27T06:33:36.750Z,8.61
2022-09-27T06:36:05.760Z,8.65
2022-09-27T06:38:33.854Z,8.77
2022-09-27T06:41:02.520Z,8.81
2022-09-27T06:43:31.157Z,8.83
2022-09-27T06:46:01.165Z,8.88
2022-09-27T06:48:31.448Z,8.81
2022-09-27T06:50:59.323Z,8.76
2022-09-27T06:53:29.084Z,8.74
2022-09-27T06:55:58.562Z,8.88
2022-09-27T06:58:43.976Z,8.86
2022-09-27T07:01:12.237Z,8.94
2022-09-27T07:03:43.051Z,8.96
2022-09-27T07:06:20.267Z,8.91
2022-09-27T07:08:51.084Z,8.92
2022-09-27T07:11:19.320Z,8.93
2022-09-27T07:13:47.090Z,8.97
2022-09-27T07:16:15.203Z,8.86
2022-09-27T07:18:44.564Z,8.91
2022-09-27T07:21:12.695Z,8.99
2022-09-27T07:23:40.674Z,8.90
2022-09-27T07:26:10.370Z,9.01
2022-09-27T07:28:41.454Z,9.06
2022-09-27T07:31:10.284Z,9.04
2022-09-27T07:33:43.050Z,9.02
2022-09-27T07:36:13.685Z,9.10
2022-09-27T07:38:41.481Z,9.02
2022-09-27T07:41:09.832Z,9.18
2022-09-27T07:43:37.672Z,9.43
2022-09-27T07:46:05.501Z,9.84
2022-09-27T07:48:33.580Z,10.92
2022-09-27T07:51:01.371Z,12.77
2022-09-27T07:53:30.535Z,13.40
2022-09-27T07:55:58.921Z,12.49
2022-09-27T07:58:26.690Z,11.74
2022-09-27T08:00:56.773Z,11.40
2022-09-27T08:03:24.704Z,11.29
2022-09-27T08:05:52.541Z,11.22
2022-09-27T08:08:20.425Z,11.18
2022-09-27T08:10:49.600Z,11.33
2022-09-27T08:13:20.008Z,11.56
2022-09-27T08:15:48.659Z,11.94
2022-09-27T08:18:17.526Z,12.33
2022-09-27T08:20:46.842Z,12.33
2022-09-27T08:23:14.637Z,12.96
2022-09-27T08:25:43.804Z,13.60
2022-09-27T08:28:12.978Z,13.31
2022-09-27T08:30:40.831Z,13.03
2022-09-27T08:33:08.690Z,13.36
2022-09-27T08:35:36.657Z,13.23
2022-09-27T08:38:05.822Z,13.40
2022-09-27T08:40:41.560Z,16.07
2022-09-27T08:43:15.120Z,18.86
2022-09-27T08:45:50.034Z,20.33
2022-09-27T08:48:18.761Z,18.87
2022-09-27T08:50:49.471Z,16.91
2022-09-27T08:53:21.349Z,16.47
2022-09-27T08:55:50.635Z,16.26
2022-09-27T08:58:23.222Z,15.60
2022-09-27T09:00:53.273Z,15.33
2022-09-27T09:03:23.457Z,16.08
2022-09-27T09:05:57.301Z,15.31
2022-09-27T09:08:32.293Z,14.42
2022-09-27T09:11:24.963Z,14.96
2022-09-27T09:14:13.428Z,13.92
2022-09-27T09:16:47.259Z,13.53
2022-09-27T09:19:27.688Z,13.21
2022-09-27T09:21:59.878Z,13.18
2022-09-27T09:24:36.192Z,13.46
2022-09-27T09:27:08.452Z,13.68
2022-09-27T09:29:43.989Z,13.33
2022-09-27T09:32:21.310Z,13.06
2022-09-27T09:34:53.005Z,12.47
2022-09-27T09:37:22.657Z,12.27
2022-09-27T09:39:53.764Z,12.06
2022-09-27T09:42:25.503Z,12.09
2022-09-27T09:44:55.502Z,11.83
2022-09-27T09:47:30.753Z,12.01
2022-09-27T09:49:59.896Z,12.25
2022-09-27T09:52:40.601Z,12.07
2022-09-27T09:55:15.001Z,11.77
2022-09-27T09:57:46.290Z,11.94
2022-09-27T10:00:15.180Z,12.02
2022-09-27T10:02:45.464Z,12.32
2022-09-27T10:05:15.134Z,13.20
2022-09-27T10:07:43.173Z,13.07
2022-09-27T10:10:14.313Z,13.01
2022-09-27T10:12:42.362Z,13.72
2022-09-27T10:15:15.065Z,14.03
2022-09-27T10:17:46.370Z,15.45
2022-09-27T10:20:21.483Z,15.94
2022-09-27T10:22:54.433Z,16.96
2022-09-27T10:25:22.458Z,17.64
2022-09-27T10:27:51.362Z,16.81
2022-09-27T10:30:23.715Z,15.77
2022-09-27T10:32:54.577Z,14.31
2022-09-27T10:35:32.644Z,13.33
2022-09-27T10:38:13.533Z,12.64
2022-09-27T10:40:41.702Z,12.14
2022-09-27T10:43:29.448Z,12.24
2022-09-27T10:46:04.084Z,12.83
2022-09-27T10:48:33.656Z,13.67
2022-09-27T10:51:02.724Z,14.57
2022-09-27T10:53:31.499Z,15.21
2022-09-27T10:55:59.796Z,14.39
2022-09-27T10:58:28.835Z,15.00
2022-09-27T11:00:58.304Z,14.98
2022-09-27T11:03:28.904Z,14.78
2022-09-27T11:05:59.388Z,13.48
2022-09-27T11:08:33.877Z,13.10
2022-09-27T11:11:03.336Z,12.56
2022-09-27T11:13:33.026Z,12.28
2022-09-27T11:16:19.095Z,12.14
2022-09-27T11:18:50.914Z,11.95
2022-09-27T11:21:24.588Z,11.84
2022-09-27T11:24:00.347Z,11.45
2022-09-27T11:26:33.697Z,11.56
2022-09-27T11:29:10.148Z,11.59
2022-09-27T11:31:42.883Z,11.47
2022-09-27T11:34:27.762Z,11.01
2022-09-27T11:37:05.575Z,10.71
2022-09-27T11:39:40.869Z,10.67
2022-09-27T11:42:16.389Z,10.60
2022-09-27T11:45:19.907Z,10.48
2022-09-27T11:47:50.888Z,10.90
2022-09-27T11:50:30.654Z,11.96
2022-09-27T11:53:11.219Z,14.52
2022-09-27T11:55:46.121Z,14.59
2022-09-27T11:58:22.112Z,14.99
2022-09-27T12:00:58.982Z,15.51
2022-09-27T12:03:35.838Z,16.63
2022-09-27T12:06:12.428Z,16.78
2022-09-27T12:08:59.321Z,15.79
2022-09-27T12:11:30.406Z,15.90
2022-09-27T12:14:00.719Z,16.75
2022-09-27T12:16:29.601Z,16.80
2022-09-27T12:18:58.669Z,16.03
2022-09-27T12:21:28.035Z,16.41
2022-09-27T12:23:57.715Z,17.59
2022-09-27T12:26:27.454Z,16.87
2022-09-27T12:28:57.600Z,15.86
2022-09-27T12:31:30.749Z,15.44
2022-09-27T12:34:03.572Z,15.66
2022-09-27T12:36:38.832Z,15.79
2022-09-27T12:39:12.252Z,17.54
2022-09-27T12:41:42.288Z,18.08
2022-09-27T12:44:12.807Z,18.63
2022-09-27T12:46:45.684Z,17.75
2022-09-27T12:49:16.482Z,16.82
2022-09-27T12:51:47.507Z,15.70
2022-09-27T12:54:25.220Z,15.95
2022-09-27T12:56:58.007Z,16.44
2022-09-27T12:59:46.941Z,16.76
2022-09-27T13:02:28.826Z,16.69
2022-09-27T13:05:18.216Z,16.45
2022-09-27T13:07:53.206Z,16.27
2022-09-27T13:10:41.412Z,15.43
2022-09-27T13:13:11.668Z,14.88
2022-09-27T13:15:40.841Z,17.56
2022-09-27T13:18:29.215Z,17.21
2022-09-27T13:20:57.243Z,16.90
2022-09-27T13:23:59.282Z,15.65
2022-09-27T13:26:48.414Z,15.32
2022-09-27T13:29:24.791Z,15.82
2022-09-27T13:32:16.746Z,15.13
2022-09-27T13:34:46.923Z,14.15
2022-09-27T13:37:44.451Z,13.47
2022-09-27T13:40:27.232Z,12.84
2022-09-27T13:43:16.321Z,12.54
2022-09-27T13:45:51.898Z,12.15
2022-09-27T13:48:21.914Z,12.18
2022-09-27T13:50:53.316Z,12.82
2022-09-27T13:53:24.185Z,13.33
2022-09-27T13:55:53.807Z,13.49
2022-09-27T13:58:39.492Z,13.47
2022-09-27T14:01:13.941Z,13.44
2022-09-27T14:03:45.228Z,13.93
2022-09-27T14:06:18.596Z,14.04
2022-09-27T14:08:47.339Z,13.93
2022-09-27T14:11:16.621Z,13.73
2022-09-27T14:13:45.734Z,13.32
2022-09-27T14:16:16.746Z,13.28
2022-09-27T14:18:47.995Z,13.01
2022-09-27T14:21:28.726Z,13.57
2022-09-27T14:24:11.541Z,13.69
2022-09-27T14:26:39.779Z,14.11
2022-09-27T14:29:16.760Z,14.17
2022-09-27T14:31:44.992Z,14.01
2022-09-27T14:34:13.340Z,13.82
2022-09-27T14:37:01.725Z,13.73
2022-09-27T14:39:32.381Z,13.86
2022-09-27T14:42:00.549Z,13.59
2022-09-27T14:44:28.703Z,13.72
2022-09-27T14:47:08.779Z,13.60
2022-09-27T14:49:36.981Z,13.39
2022-09-27T14:52:17.687Z,13.17
2022-09-27T14:54:47.875Z,12.91
2022-09-27T14:57:16.977Z,12.84
2022-09-27T14:59:47.338Z,13.00
2022-09-27T15:02:18.553Z,12.83
2022-09-27T15:04:47.707Z,12.85
2022-09-27T15:07:17.099Z,12.69
2022-09-27T15:09:45.691Z,12.48
2022-09-27T15:12:15.300Z,12.33
2022-09-27T15:14:44.843Z,12.31
2022-09-27T15:17:18.267Z,11.99
2022-09-27T15:19:57.294Z,11.99
2022-09-27T15:22:34.125Z,12.06
2022-09-27T15:25:06.308Z,11.77
2022-09-27T15:27:34.326Z,11.65
2022-09-27T15:30:02.140Z,11.62
2022-09-27T15:32:30.529Z,11.54
2022-09-27T15:35:06.869Z,11.45
2022-09-27T15:37:37.584Z,11.43
2022-09-27T15:40:30.075Z,11.38
2022-09-27T15:42:59.369Z,11.41
2022-09-27T15:45:28.678Z,11.47
2022-09-27T15:47:56.558Z,11.60
2022-09-27T15:50:37.981Z,11.62
2022-09-27T15:53:07.671Z,11.51
2022-09-27T15:55:37.130Z,11.62
2022-09-27T15:58:06.301Z,11.54
2022-09-27T16:00:34.989Z,11.48
2022-09-27T16:03:03.003Z,11.51
2022-09-27T16:05:33.067Z,11.50
2022-09-27T16:08:01.116Z,11.47
2022-09-27T16:10:36.968Z,11.40
2022-09-27T16:13:05.021Z,11.18
2022-09-27T16:15:32.828Z,11.02
2022-09-27T16:18:01.026Z,10.99
2022-09-27T16:20:28.894Z,10.89
2022-09-27T16:22:57.104Z,10.96
2022-09-27T16:25:25.211Z,10.90
2022-09-27T16:27:54.351Z,10.84
2022-09-27T16:30:22.170Z,10.70
2022-09-27T16:32:50.619Z,10.69
2022-09-27T16:35:19.202Z,10.76
2022-09-27T16:37:47.114Z,10.62
2022-09-27T16:40:17.938Z,10.57
2022-09-27T16:42:46.022Z,10.46
2022-09-27T16:45:19.233Z,10.51
2022-09-27T16:47:48.077Z,10.37
2022-09-27T16:50:33.557Z,10.26
2022-09-27T16:53:01.531Z,10.19
2022-09-27T16:55:30.249Z,10.05
2022-09-27T16:57:59.088Z,9.98
2022-09-27T17:00:28.400Z,9.88
2022-09-27T17:02:56.292Z,9.76
2022-09-27T17:05:24.233Z,9.77
2022-09-27T17:07:52.635Z,9.69
2022-09-27T17:10:20.554Z,9.64
2022-09-27T17:12:48.396Z,9.62
2022-09-27T17:15:16.952Z,9.51
2022-09-27T17:17:49.272Z,9.44
2022-09-27T17:20:17.602Z,9.44
2022-09-27T17:22:45.389Z,9.50
2022-09-27T17:25:13.373Z,9.43
2022-09-27T17:27:41.149Z,9.43
2022-09-27T17:30:09.397Z,9.42
2022-09-27T17:32:38.468Z,9.40
2022-09-27T17:35:09.218Z,9.34
2022-09-27T17:37:37.049Z,9.34
2022-09-27T17:40:05.286Z,9.32
2022-09-27T17:42:33.582Z,9.29
2022-09-27T17:45:01.512Z,9.19
2022-09-27T17:47:46.918Z,9.13
2022-09-27T17:50:25.380Z,9.04
2022-09-27T17:52:53.710Z,8.99
2022-09-27T17:55:22.280Z,8.97
2022-09-27T17:57:52.312Z,9.05
2022-09-27T18:00:20.900Z,8.99
2022-09-27T18:02:48.959Z,8.99
2022-09-27T18:05:21.091Z,8.92
2022-09-27T18:07:49.292Z,8.97
2022-09-27T18:10:18.009Z,8.95
2022-09-27T18:12:45.905Z,8.92
2022-09-27T18:15:17.851Z,8.89
2022-09-27T18:17:45.837Z,8.89
2022-09-27T18:20:13.731Z,8.88
2022-09-27T18:22:42.856Z,8.90
2022-09-27T18:25:11.961Z,8.90
2022-09-27T18:27:40.869Z,8.85
2022-09-27T18:30:09.404Z,8.95
2022-09-27T18:32:37.354Z,8.90
2022-09-27T18:35:05.342Z,8.81
2022-09-27T18:37:33.210Z,8.78
2022-09-27T18:40:02.550Z,8.81
2022-09-27T18:42:31.142Z,8.72
2022-09-27T18:44:59.123Z,8.68
2022-09-27T18:47:26.984Z,8.56
2022-09-27T18:49:54.798Z,8.56
2022-09-27T18:52:22.589Z,8.51
2022-09-27T18:54:50.865Z,8.46
2022-09-27T18:57:20.198Z,8.47
2022-09-27T18:59:49.188Z,8.48
2022-09-27T19:02:17.119Z,8.42
2022-09-27T19:04:44.954Z,8.36
2022-09-27T19:07:12.828Z,8.34
2022-09-27T19:09:40.788Z,8.23
2022-09-27T19:12:08.556Z,8.23
2022-09-27T19:14:37.713Z,8.11
2022-09-27T19:17:05.529Z,8.06
2022-09-27T19:19:33.349Z,8.03
2022-09-27T19:22:01.276Z,8.07
2022-09-27T19:24:29.113Z,8.14
2022-09-27T19:26:57.244Z,8.11
2022-09-27T19:29:25.083Z,8.11
2022-09-27T19:31:54.277Z,7.96
2022-09-27T19:34:22.262Z,7.91
2022-09-27T19:36:50.067Z,7.91
2022-09-27T19:39:18.000Z,8.04
2022-09-27T19:41:45.929Z,8.03
2022-09-27T19:44:14.464Z,7.97
2022-09-27T19:46:45.056Z,8.00
2022-09-27T19:49:14.495Z,8.00
2022-09-27T19:51:42.316Z,7.94
2022-09-27T19:54:10.713Z,7.98
2022-09-27T19:56:38.717Z,8.02
2022-09-27T19:59:07.457Z,8.07
2022-09-27T20:01:43.711Z,8.07
2022-09-27T20:04:12.458Z,8.05
2022-09-27T20:06:41.769Z,8.07
2022-09-27T20:09:09.967Z,8.02
2022-09-27T20:11:37.823Z,8.00
2022-09-27T20:14:05.850Z,8.00
2022-09-27T20:16:35.341Z,7.96
2022-09-27T20:19:05.864Z,7.95
2022-09-27T20:21:33.986Z,7.94
2022-09-27T20:24:03.713Z,7.85
2022-09-27T20:26:32.128Z,7.95
2022-09-27T20:29:01.121Z,7.89
2022-09-27T20:31:30.052Z,7.91
2022-09-27T20:33:57.994Z,7.87
2022-09-27T20:36:26.557Z,7.78
2022-09-27T20:38:59.610Z,7.81
2022-09-27T20:41:31.690Z,7.78
2022-09-27T20:44:01.034Z,7.81
2022-09-27T20:46:28.899Z,7.83
2022-09-27T20:48:58.906Z,7.84
2022-09-27T20:51:27.108Z,7.80
2022-09-27T20:53:55.262Z,7.77
2022-09-27T20:56:24.170Z,7.76
2022-09-27T20:58:54.169Z,7.71
2022-09-27T21:01:22.840Z,7.73
2022-09-27T21:03:54.190Z,7.76
2022-09-27T21:06:23.844Z,7.76
2022-09-27T21:08:52.301Z,7.76
2022-09-27T21:11:20.951Z,7.68
2022-09-27T21:13:49.533Z,7.66
2022-09-27T21:16:20.510Z,7.68
2022-09-27T21:18:49.682Z,7.66
2022-09-27T21:21:17.837Z,7.63
2022-09-27T21:23:46.241Z,7.62
2022-09-27T21:26:14.840Z,7.58
2022-09-27T21:28:43.521Z,7.57
2022-09-27T21:31:12.470Z,7.64
2022-09-27T21:33:42.229Z,7.62
2022-09-27T21:36:11.829Z,7.57
2022-09-27T21:38:39.768Z,7.56
2022-09-27T21:41:08.316Z,7.58
2022-09-27T21:43:37.612Z,7.56
2022-09-27T21:46:06.382Z,7.61
2022-09-27T21:48:35.030Z,7.64
2022-09-27T21:51:05.477Z,7.65
2022-09-27T21:53:33.493Z,7.65
2022-09-27T21:56:01.789Z,7.67
2022-09-27T21:58:29.769Z,7.66
2022-09-27T22:00:57.618Z,7.68
2022-09-27T22:03:25.592Z,7.62
2022-09-27T22:05:53.724Z,7.62
2022-09-27T22:08:23.134Z,7.60
2022-09-27T22:10:50.964Z,7.62
2022-09-27T22:13:18.759Z,7.68
2022-09-27T22:15:46.775Z,7.73
2022-09-27T22:18:14.601Z,7.74
2022-09-27T22:20:42.417Z,7.69
2022-09-27T22:23:10.228Z,7.59
2022-09-27T22:25:39.998Z,7.57
2022-09-27T22:28:08.300Z,7.61
2022-09-27T22:30:36.246Z,7.63
2022-09-27T22:33:04.078Z,7.64
2022-09-27T22:35:31.883Z,7.64
2022-09-27T22:37:59.734Z,7.67
2022-09-27T22:40:27.722Z,7.68
2022-09-27T22:42:56.906Z,7.69
2022-09-27T22:45:26.160Z,7.72
2022-09-27T22:47:54.024Z,7.75
2022-09-27T22:50:21.994Z,7.74
2022-09-27T22:52:49.943Z,7.75
2022-09-27T22:55:17.852Z,7.76
2022-09-27T22:57:45.655Z,7.75
2022-09-27T23:00:15.304Z,7.76
2022-09-27T23:02:43.072Z,7.77
2022-09-27T23:05:11.016Z,7.78
2022-09-27T23:07:38.838Z,7.78
2022-09-27T23:10:07.488Z,7.83
2022-09-27T23:12:35.289Z,7.84
2022-09-27T23:15:03.082Z,7.85
2022-09-27T23:17:33.064Z,7.88
2022-09-27T23:20:02.680Z,7.91
2022-09-27T23:22:33.073Z,7.92
2022-09-27T23:25:00.968Z,7.94
2022-09-27T23:27:45.115Z,7.94
2022-09-27T23:30:13.520Z,7.89
2022-09-27T23:32:44.680Z,7.90
2022-09-27T23:35:12.940Z,7.89
2022-09-27T23:37:41.101Z,7.99
2022-09-27T23:40:09.542Z,7.92
2022-09-27T23:42:37.441Z,7.89
2022-09-27T23:45:05.699Z,7.83
2022-09-27T23:47:33.701Z,7.83
2022-09-27T23:50:02.832Z,7.83
2022-09-27T23:52:30.631Z,7.74
2022-09-27T23:54:58.399Z,7.64
2022-09-27T23:57:26.225Z,7.51
2022-09-27T23:59:54.137Z,7.38
